Time;durP1;ratioP1;P1;durP2;ratioP2;P2;SDS_P1;SDS_P2;PMS_P1;PMS_P2;Temp;Humidity;BMP_temperature;BMP_pressure;BME280_temperature;BME280_humidity;BME280_pressure;Samples;Min_cycle;Max_cycle;Signal;HPM_P1;HPM_P2
2021/12/07 00:01:54;;;;;;;6.32;4.43;;;2.60;99.90;;;3.12;100.00;99331.44;5060608;28;20119;-80
2021/12/07 00:04:22;;;;;;;6.03;3.97;;;2.60;99.90;;;3.03;100.00;99333.47;5063449;28;20098;-82
2021/12/07 00:06:48;;;;;;;6.30;3.92;;;2.70;99.90;;;2.98;100.00;99336.47;5063401;28;20088;-84
2021/12/07 00:09:18;;;;;;;4.72;3.45;;;2.60;99.90;;;3.10;100.00;99326.28;5060436;28;20512;-79
2021/12/07 00:11:48;;;;;;;6.00;3.85;;;2.60;99.90;;;3.11;100.00;99329.84;5058356;28;20026;-84
2021/12/07 00:14:23;;;;;;;5.40;3.97;;;2.70;99.90;;;3.13;100.00;99336.63;5063643;28;20036;-80
2021/12/07 00:16:54;;;;;;;3.85;3.22;;;2.70;99.90;;;3.07;100.00;99329.72;5074757;28;20025;-80
2021/12/07 00:19:21;;;;;;;5.57;3.10;;;2.70;99.90;;;3.02;100.00;99327.16;5075251;28;20026;-78
2021/12/07 00:21:48;;;;;;;4.30;2.90;;;2.70;99.90;;;3.11;100.00;99333.38;5071546;28;20143;-84
2021/12/07 00:24:16;;;;;;;4.13;2.92;;;2.70;99.90;;;3.18;100.00;99327.31;5074862;28;20491;-80
2021/12/07 00:26:44;;;;;;;3.85;2.92;;;2.70;99.90;;;3.22;100.00;99324.66;5075232;28;20043;-82
2021/12/07 00:29:13;;;;;;;4.28;2.95;;;2.80;99.90;;;3.20;100.00;99330.53;5090949;28;20032;-82
2021/12/07 00:31:53;;;;;;;5.22;3.00;;;2.80;99.90;;;3.19;100.00;99321.47;5075373;28;20025;-78
2021/12/07 00:36:55;;;;;;;3.08;2.20;;;2.80;99.90;;;3.16;100.00;99319.38;5079733;28;20345;-83
2021/12/07 00:39:25;;;;;;;2.78;2.10;;;2.80;99.90;;;3.22;100.00;99319.16;5077504;28;20039;-82
2021/12/07 00:41:54;;;;;;;2.55;1.63;;;2.90;99.90;;;3.19;100.00;99321.47;5078588;28;20043;-78
2021/12/07 00:44:23;;;;;;;2.58;1.80;;;2.80;99.90;;;3.31;100.00;99320.66;5077784;28;20039;-81
2021/12/07 00:46:50;;;;;;;2.22;1.55;;;2.90;99.90;;;3.34;100.00;99316.44;5077519;28;20044;-82
2021/12/07 00:49:21;;;;;;;2.10;1.40;;;2.90;99.90;;;3.39;100.00;99325.31;5077783;28;20048;-81
2021/12/07 00:51:48;;;;;;;2.55;1.75;;;3.00;99.90;;;3.39;100.00;99322.53;5077780;28;20039;-81
2021/12/07 00:54:15;;;;;;;2.42;1.58;;;3.00;99.90;;;3.38;100.00;99322.88;5079021;28;20253;-82
2021/12/07 00:56:44;;;;;;;2.13;1.40;;;3.00;99.90;;;3.39;100.00;99332.75;5078774;28;20477;-84
2021/12/07 00:59:11;;;;;;;2.03;1.48;;;3.00;99.90;;;3.41;100.00;99328.50;5078939;28;20062;-82
2021/12/07 01:01:37;;;;;;;1.90;1.30;;;3.00;99.90;;;3.38;100.00;99325.63;5077677;28;20028;-83
2021/12/07 01:04:05;;;;;;;2.92;1.50;;;3.00;99.90;;;3.40;100.00;99332.44;5077927;28;20063;-81
2021/12/07 01:06:46;;;;;;;1.67;1.30;;;3.00;99.90;;;3.40;100.00;99337.97;5078022;28;20060;-83
2021/12/07 01:25:52;;;;;;;2.55;1.77;;;2.80;99.90;;;3.16;100.00;99369.03;5076186;28;20067;-84
2021/12/07 01:28:27;;;;;;;1.80;1.40;;;2.80;99.90;;;3.14;100.00;99371.34;5074901;28;20033;-78
2021/12/07 01:41:20;;;;;;;2.83;2.20;;;2.70;99.90;;;3.11;100.00;99393.28;5077588;28;20125;-82
2021/12/07 01:50:12;;;;;;;4.32;2.50;;;2.60;99.90;;;3.08;100.00;99402.25;5015246;28;20032;-83
2021/12/07 02:00:28;;;;;;;3.17;2.50;;;2.60;99.90;;;3.10;100.00;99422.00;5076497;28;20032;-81
2021/12/07 02:02:55;;;;;;;3.03;2.53;;;2.60;99.90;;;2.98;100.00;99421.97;5075015;28;20115;-79
2021/12/07 02:05:23;;;;;;;3.78;2.75;;;2.50;99.90;;;2.94;100.00;99430.09;5075366;28;20082;-81
2021/12/07 02:07:49;;;;;;;5.00;3.38;;;2.50;99.90;;;3.01;100.00;99432.31;5092141;28;20035;-81
2021/12/07 02:10:22;;;;;;;4.03;3.35;;;2.50;99.90;;;2.99;100.00;99427.13;5075213;28;20369;-81
2021/12/07 02:12:50;;;;;;;5.07;3.50;;;2.50;99.90;;;2.98;100.00;99425.53;5074512;28;20028;-80
2021/12/07 02:15:25;;;;;;;5.38;3.92;;;2.50;99.90;;;3.02;100.00;99436.66;5076845;28;20017;-81
2021/12/07 02:17:52;;;;;;;4.57;3.75;;;2.50;99.90;;;2.97;100.00;99447.91;5077038;28;20024;-81
2021/12/07 02:20:24;;;;;;;4.75;3.67;;;2.40;99.90;;;2.89;100.00;99443.28;5075413;28;20024;-82
2021/12/07 02:22:54;;;;;;;6.05;3.85;;;2.40;99.90;;;2.83;100.00;99447.38;5074591;28;20025;-82
2021/12/07 02:25:28;;;;;;;6.25;4.63;;;2.40;99.90;;;2.80;100.00;99459.06;5075117;28;20484;-82
2021/12/07 02:27:55;;;;;;;5.35;3.75;;;2.30;99.90;;;2.77;100.00;99468.00;5076011;28;20373;-81
2021/12/07 02:30:26;;;;;;;6.43;4.80;;;2.30;99.90;;;2.69;100.00;99475.22;5090837;28;20040;-81
2021/12/07 02:32:57;;;;;;;5.85;4.88;;;2.30;99.90;;;2.70;100.00;99482.31;5090632;28;20392;-82
2021/12/07 02:35:26;;;;;;;6.15;4.20;;;2.20;99.90;;;2.69;100.00;99491.75;5074494;28;20048;-81
2021/12/07 02:37:55;;;;;;;6.13;4.88;;;2.20;99.90;;;2.55;100.00;99483.72;5075381;28;20040;-81
2021/12/07 02:40:22;;;;;;;6.65;4.70;;;2.10;99.90;;;2.48;100.00;99491.69;5073396;28;20161;-81
2021/12/07 02:42:52;;;;;;;6.95;4.85;;;2.10;99.90;;;2.49;100.00;99498.84;5074489;28;20085;-81
2021/12/07 02:45:22;;;;;;;6.85;4.78;;;2.00;99.90;;;2.42;100.00;99498.53;5074394;28;20089;-82
2021/12/07 02:47:48;;;;;;;7.57;4.78;;;1.90;99.90;;;2.24;100.00;99509.97;5073573;28;20036;-81
2021/12/07 02:50:16;;;;;;;7.28;5.35;;;1.90;99.90;;;2.15;100.00;99507.28;5090476;28;20052;-82
2021/12/07 02:52:43;;;;;;;9.57;6.38;;;1.80;99.90;;;2.20;100.00;99506.25;5074255;28;20024;-83
2021/12/07 02:55:13;;;;;;;8.95;5.47;;;1.70;99.90;;;2.15;100.00;99506.47;5090316;28;20460;-82
2021/12/07 02:57:39;;;;;;;9.45;5.80;;;1.70;99.90;;;2.17;100.00;99509.69;5075250;28;20024;-85
2021/12/07 03:00:15;;;;;;;8.25;5.82;;;1.70;99.90;;;2.14;100.00;99519.41;5105782;22;20041;-81
2021/12/07 03:02:52;;;;;;;8.20;5.85;;;1.70;99.90;;;2.07;100.00;99519.13;5061394;28;20443;-80
2021/12/07 03:05:53;;;;;;;9.45;6.25;;;1.60;99.90;;;2.02;100.00;99519.31;5061501;28;20033;-81
2021/12/07 03:27:24;;;;;;;14.80;9.93;;;1.70;99.90;;;2.13;100.00;99554.41;5062397;28;20052;-82
2021/12/07 03:29:50;;;;;;;14.45;9.38;;;1.70;99.90;;;2.25;100.00;99561.19;5060886;28;20028;-80
2021/12/07 03:32:17;;;;;;;19.63;10.27;;;1.70;99.90;;;2.27;100.00;99569.94;5061197;28;20484;-79
2021/12/07 03:34:46;;;;;;;16.05;10.50;;;1.80;99.90;;;2.26;100.00;99569.13;5061925;28;20076;-79
2021/12/07 03:37:12;;;;;;;22.27;11.75;;;1.80;99.90;;;2.26;100.00;99569.13;5062065;28;20020;-80
2021/12/07 03:39:38;;;;;;;18.80;11.25;;;1.80;99.90;;;2.31;100.00;99571.69;5061287;28;20538;-81
2021/12/07 03:42:04;;;;;;;21.15;12.25;;;1.80;99.90;;;2.35;100.00;99583.66;5076981;28;20033;-81
2021/12/07 03:44:36;;;;;;;23.27;13.32;;;1.80;99.90;;;2.34;100.00;99581.25;5061524;28;20361;-80
2021/12/07 03:47:02;;;;;;;24.40;13.43;;;1.90;99.90;;;2.41;100.00;99593.38;5060806;28;20029;-81
2021/12/07 03:49:28;;;;;;;23.58;14.35;;;1.90;99.90;;;2.45;100.00;99593.53;5061063;28;20037;-81
2021/12/07 03:51:54;;;;;;;24.35;13.65;;;1.90;99.90;;;2.48;100.00;99601.94;5061273;28;20029;-83
2021/12/07 03:54:20;;;;;;;26.70;15.93;;;2.00;99.90;;;2.53;100.00;99606.47;5060781;28;20033;-81
2021/12/07 03:56:46;;;;;;;25.52;14.57;;;2.00;99.90;;;2.51;100.00;99604.03;5061771;28;20029;-81
2021/12/07 03:59:15;;;;;;;30.85;16.50;;;2.00;99.90;;;2.51;100.00;99603.22;5060702;28;20039;-82
2021/12/07 04:01:41;;;;;;;29.85;15.35;;;2.00;99.90;;;2.57;100.00;99610.16;5060413;28;20032;-81
2021/12/07 04:04:08;;;;;;;27.83;15.60;;;2.10;99.90;;;2.62;100.00;99607.25;5061987;28;20033;-81
2021/12/07 04:06:34;;;;;;;36.00;18.65;;;2.10;99.90;;;2.66;100.00;99611.75;5062928;28;20033;-80
2021/12/07 04:09:00;;;;;;;35.63;18.73;;;2.10;99.90;;;2.67;100.00;99624.41;5065240;28;20033;-81
2021/12/07 04:11:26;;;;;;;35.42;18.67;;;2.10;99.90;;;2.70;100.00;99627.66;5065427;28;20357;-82
2021/12/07 04:13:55;;;;;;;39.13;20.65;;;2.10;99.90;;;2.67;100.00;99631.84;5065330;28;20123;-81
2021/12/07 04:16:21;;;;;;;39.97;19.95;;;2.10;99.90;;;2.74;100.00;99639.63;5064668;28;20101;-80
2021/12/07 04:18:47;;;;;;;43.17;20.40;;;2.20;99.90;;;2.79;100.00;99642.22;5065397;28;20360;-81
2021/12/07 04:21:14;;;;;;;41.97;22.00;;;2.20;99.90;;;2.85;100.00;99643.66;5066228;28;20044;-81
2021/12/07 04:23:40;;;;;;;47.97;22.95;;;2.30;99.90;;;2.82;100.00;99644.31;5067123;28;20060;-81
2021/12/07 04:26:10;;;;;;;44.25;22.83;;;2.30;99.90;;;2.88;100.00;99642.97;5082769;28;20364;-80
2021/12/07 04:28:38;;;;;;;53.45;23.40;;;2.30;99.90;;;2.92;100.00;99644.72;5065169;28;20476;-81
2021/12/07 04:31:06;;;;;;;53.20;24.45;;;2.30;99.90;;;2.97;100.00;99647.31;5083658;28;20499;-82
2021/12/07 04:33:34;;;;;;;52.78;24.13;;;2.40;99.90;;;3.00;100.00;99646.66;5074695;28;20083;-80
2021/12/07 04:36:08;;;;;;;53.58;24.17;;;2.40;99.90;;;3.02;100.00;99649.06;5075872;28;20036;-81
2021/12/07 04:38:34;;;;;;;56.45;23.75;;;2.50;99.90;;;3.05;100.00;99651.19;5075203;28;20029;-80
2021/12/07 04:41:01;;;;;;;51.00;22.92;;;2.50;99.90;;;3.06;100.00;99647.25;5070555;28;20037;-81
2021/12/07 04:43:30;;;;;;;59.47;26.02;;;2.50;99.90;;;3.03;100.00;99653.44;5065030;28;20111;-80
2021/12/07 04:48:48;;;;;;;56.90;27.30;;;2.50;99.90;;;3.11;100.00;99656.16;5065209;28;20636;-80
2021/12/07 04:59:24;;;;;;;54.08;25.50;;;2.70;99.90;;;3.28;100.00;99677.31;5064487;28;20044;-81
2021/12/07 05:01:50;;;;;;;48.70;25.80;;;2.70;99.90;;;3.32;100.00;99667.25;5079386;28;20051;-80
2021/12/07 05:04:21;;;;;;;60.42;24.67;;;2.70;99.90;;;3.31;100.00;99676.66;5080093;28;20362;-80
2021/12/07 05:06:51;;;;;;;52.13;26.08;;;2.80;99.90;;;3.34;100.00;99680.72;5065212;28;20040;-81
2021/12/07 05:14:44;;;;;;;48.47;23.92;;;2.80;99.90;;;3.30;100.00;99688.84;5064889;28;20499;-82
2021/12/07 05:39:05;;;;;;;53.55;26.13;;;3.00;99.90;;;3.57;100.00;99718.72;5069725;28;20094;-81
2021/12/07 05:41:37;;;;;;;55.25;24.52;;;3.00;99.90;;;3.62;100.00;99724.06;5068014;28;20036;-81
2021/12/07 05:44:04;;;;;;;50.50;26.13;;;3.00;99.90;;;3.66;100.00;99733.28;5061886;28;20036;-81
2021/12/07 05:46:30;;;;;;;52.05;25.42;;;3.10;99.90;;;3.66;100.00;99733.28;5068161;28;20044;-81
2021/12/07 05:48:56;;;;;;;53.30;26.73;;;3.10;99.90;;;3.70;100.00;99731.47;5069233;28;20024;-80
2021/12/07 05:51:22;;;;;;;50.03;25.35;;;3.20;99.90;;;3.85;100.00;99727.34;5066382;28;20414;-80
2021/12/07 05:53:48;;;;;;;60.97;28.13;;;3.20;99.90;;;3.83;100.00;99737.06;5066805;28;20043;-80
2021/12/07 05:56:20;;;;;;;50.30;25.02;;;3.30;99.90;;;3.75;100.00;99736.00;5069417;28;20112;-81
2021/12/07 05:58:45;;;;;;;52.72;24.42;;;3.20;99.90;;;3.71;100.00;99738.63;5068376;28;20033;-79
2021/12/07 06:01:14;;;;;;;50.38;25.60;;;3.20;99.90;;;3.70;100.00;99750.81;5067187;28;20479;-81
2021/12/07 06:03:40;;;;;;;50.95;22.48;;;3.20;99.90;;;3.69;100.00;99762.97;5061405;28;20056;-81
2021/12/07 06:06:06;;;;;;;57.92;23.63;;;3.20;99.90;;;3.68;100.00;99766.09;5060948;28;20033;-80
2021/12/07 06:08:34;;;;;;;49.30;23.52;;;3.10;99.90;;;3.65;100.00;99767.59;5062369;28;20411;-81
2021/12/07 06:11:06;;;;;;;47.15;21.10;;;3.20;99.90;;;3.72;100.00;99776.13;5062068;28;20021;-81
2021/12/07 06:13:32;;;;;;;52.60;21.23;;;3.20;99.90;;;3.69;100.00;99784.28;5062364;28;20025;-81
2021/12/07 06:16:04;;;;;;;45.85;18.80;;;3.20;99.90;;;3.71;100.00;99799.38;5078236;28;20029;-83
2021/12/07 06:18:36;;;;;;;42.15;18.13;;;3.20;99.90;;;3.71;100.00;99806.84;5058404;28;20088;-81
2021/12/07 06:21:03;;;;;;;46.42;18.60;;;3.20;99.90;;;3.73;100.00;99805.38;5056767;28;20481;-82
2021/12/07 06:23:29;;;;;;;42.80;17.05;;;3.20;99.90;;;3.73;100.00;99804.56;5039949;28;20065;-82
2021/12/07 06:25:57;;;;;;;42.40;16.63;;;3.20;99.90;;;3.78;100.00;99825.66;5040013;28;20045;-82
2021/12/07 06:28:23;;;;;;;38.67;14.70;;;3.20;99.90;;;3.85;100.00;99823.19;5039100;28;20025;-82
2021/12/07 06:30:49;;;;;;;37.13;15.70;;;3.30;99.90;;;3.85;100.00;99812.97;5040751;28;20029;-81
2021/12/07 06:33:20;;;;;;;43.53;14.88;;;3.40;99.90;;;3.91;100.00;99830.97;5039580;28;20021;-82
2021/12/07 06:35:49;;;;;;;37.05;15.45;;;3.40;99.90;;;3.92;100.00;99823.47;5041462;28;20155;-82
2021/12/07 06:38:18;;;;;;;41.03;15.82;;;3.40;99.90;;;3.95;100.00;99836.63;5038903;28;20075;-81
2021/12/07 06:40:45;;;;;;;39.40;16.67;;;3.40;99.90;;;3.97;100.00;99837.09;5039011;28;20452;-81
2021/12/07 06:43:11;;;;;;;42.30;15.63;;;3.50;99.90;;;4.04;100.00;99829.09;5040504;28;20101;-79
2021/12/07 06:45:37;;;;;;;42.28;16.02;;;3.50;99.90;;;4.11;100.00;99827.41;5038554;28;20025;-78
2021/12/07 06:48:03;;;;;;;43.83;17.77;;;3.50;99.90;;;4.11;100.00;99829.38;5039909;28;20032;-82
2021/12/07 06:50:29;;;;;;;44.33;17.98;;;3.60;99.90;;;4.12;100.00;99822.69;5038892;28;20065;-79
2021/12/07 06:52:55;;;;;;;46.33;16.75;;;3.60;99.90;;;4.14;100.00;99829.50;5041612;28;20477;-80
2021/12/07 06:55:22;;;;;;;43.10;18.52;;;3.60;99.90;;;4.11;100.00;99821.88;5041196;28;20025;-79
2021/12/07 06:57:48;;;;;;;39.30;18.42;;;3.60;99.90;;;4.12;100.00;99823.50;5042341;28;20052;-80
2021/12/07 07:00:19;;;;;;;54.67;21.65;;;3.50;99.90;;;4.16;100.00;99826.41;5042603;28;20033;-80
2021/12/07 07:02:51;;;;;;;54.97;21.20;;;3.60;99.90;;;4.11;100.00;99832.16;5042516;28;20026;-79
2021/12/07 07:05:20;;;;;;;52.58;21.50;;;3.60;99.90;;;4.11;100.00;99841.22;5042541;28;20051;-80
2021/12/07 07:07:47;;;;;;;51.15;21.45;;;3.60;99.90;;;4.13;100.00;99840.91;5044496;28;20052;-79
2021/12/07 07:10:18;;;;;;;52.70;22.20;;;3.60;99.90;;;4.17;100.00;99853.69;5041324;28;20101;-80
2021/12/07 07:12:46;;;;;;;49.20;22.27;;;3.70;99.90;;;4.23;100.00;99849.63;5043521;28;20037;-80
2021/12/07 07:15:17;;;;;;;51.85;22.05;;;3.70;99.90;;;4.22;100.00;99849.94;5050095;28;20040;-79
2021/12/07 07:17:44;;;;;;;41.22;20.67;;;3.70;99.90;;;4.24;100.00;99855.94;5050130;28;20147;-80
2021/12/07 07:20:15;;;;;;;44.60;22.02;;;3.70;99.90;;;4.27;100.00;99860.78;5060131;28;20034;-79
2021/12/07 07:22:42;;;;;;;49.40;21.02;;;3.70;99.90;;;4.25;100.00;99863.09;5055412;28;20116;-77
2021/12/07 07:25:13;;;;;;;44.30;22.02;;;3.70;99.90;;;4.22;100.00;99880.34;5057778;28;20025;-79
2021/12/07 07:27:41;;;;;;;45.20;21.02;;;3.70;99.90;;;4.24;100.00;99875.28;5058176;28;20064;-79
2021/12/07 07:30:11;;;;;;;53.50;23.45;;;3.70;99.90;;;4.19;100.00;99884.59;5060658;28;20028;-79
2021/12/07 07:32:38;;;;;;;49.60;21.77;;;3.70;99.90;;;4.27;100.00;99890.41;5060007;28;20033;-80
2021/12/07 07:35:10;;;;;;;43.92;20.95;;;3.70;99.90;;;4.32;100.00;99893.78;5076112;28;20556;-80
2021/12/07 07:37:38;;;;;;;47.40;21.08;;;3.70;99.90;;;4.37;100.00;99879.75;5060520;28;20031;-80
2021/12/07 07:40:17;;;;;;;43.83;20.42;;;3.80;99.90;;;4.35;100.00;99882.06;5060417;28;20092;-79
2021/12/07 07:42:44;;;;;;;51.25;19.98;;;3.80;99.90;;;4.33;100.00;99894.59;5060462;28;20033;-78
2021/12/07 07:45:12;;;;;;;45.85;20.52;;;3.80;99.90;;;4.34;100.00;99893.44;5058462;28;20330;-81
2021/12/07 07:47:41;;;;;;;48.63;19.67;;;3.80;99.90;;;4.31;100.00;99886.63;5060422;28;20029;-80
2021/12/07 07:50:13;;;;;;;49.05;19.95;;;3.80;99.90;;;4.30;100.00;99884.22;5058726;28;20025;-78
2021/12/07 07:52:41;;;;;;;49.92;20.23;;;3.80;99.90;;;4.30;100.00;99881.44;5060456;28;20092;-80
2021/12/07 07:55:11;;;;;;;51.30;20.60;;;3.80;99.90;;;4.29;100.00;99877.88;5058853;28;20025;-79
2021/12/07 07:57:44;;;;;;;46.58;19.27;;;3.70;99.90;;;4.23;100.00;99891.06;5058620;28;20029;-80
2021/12/07 08:00:18;;;;;;;48.05;18.30;;;3.70;99.90;;;4.12;100.00;99898.13;5058179;28;20064;-80
2021/12/07 08:02:45;;;;;;;45.83;18.55;;;3.60;99.90;;;4.04;100.00;99881.59;5059383;28;20036;-79
2021/12/07 08:05:16;;;;;;;50.65;18.60;;;3.50;99.90;;;4.01;100.00;99880.31;5058247;28;20025;-82
2021/12/07 08:07:47;;;;;;;43.78;17.75;;;3.50;99.90;;;3.98;100.00;99889.25;5058466;28;20040;-78
2021/12/07 08:10:20;;;;;;;43.70;18.40;;;3.50;99.90;;;4.01;100.00;99896.06;5059417;28;20025;-78
2021/12/07 08:12:49;;;;;;;45.95;17.40;;;3.40;99.90;;;3.99;100.00;99901.91;5064460;28;20025;-80
2021/12/07 08:15:18;;;;;;;44.92;17.30;;;3.40;99.90;;;3.99;100.00;99906.63;5062643;28;20040;-78
2021/12/07 08:17:47;;;;;;;39.85;17.98;;;3.50;99.90;;;4.02;100.00;99909.53;5065875;28;20029;-79
2021/12/07 08:20:13;;;;;;;46.47;18.05;;;3.50;99.90;;;3.96;100.00;99910.88;5067319;28;20025;-80
2021/12/07 08:22:47;;;;;;;39.70;18.90;;;3.40;99.90;;;3.95;100.00;99914.78;5048675;28;20075;-80
2021/12/07 08:25:15;;;;;;;52.67;18.95;;;3.50;99.90;;;3.93;100.00;99900.50;5041488;28;20033;-81
2021/12/07 08:27:48;;;;;;;45.03;18.58;;;3.40;99.90;;;3.98;100.00;99900.28;5041680;28;20112;-80
2021/12/07 08:30:23;;;;;;;44.30;19.13;;;3.50;99.90;;;4.11;100.00;99907.53;5041917;28;20503;-79
2021/12/07 08:32:48;;;;;;;38.00;17.97;;;3.50;99.90;;;4.11;100.00;99904.00;5041410;28;20036;-78
2021/12/07 08:35:18;;;;;;;40.75;18.98;;;3.60;99.90;;;4.16;100.00;99907.38;5039301;28;20057;-79
2021/12/07 08:37:47;;;;;;;44.28;19.15;;;3.60;99.90;;;4.23;100.00;99901.31;5041045;28;20025;-79
2021/12/07 08:40:21;;;;;;;48.80;19.67;;;3.60;99.90;;;4.23;100.00;99909.63;5039976;28;20060;-79
2021/12/07 08:42:50;;;;;;;46.78;18.08;;;3.70;99.90;;;4.28;100.00;99903.06;5039434;28;20124;-79
2021/12/07 08:45:19;;;;;;;44.30;18.35;;;3.70;99.90;;;4.39;100.00;99905.13;5042345;28;20030;-79
2021/12/07 08:47:48;;;;;;;42.95;18.33;;;3.80;99.90;;;4.36;100.00;99904.97;5043286;28;20025;-81
2021/12/07 08:50:26;;;;;;;43.75;17.88;;;3.80;99.90;;;4.40;100.00;99903.97;5042373;28;20033;-80
2021/12/07 08:52:57;;;;;;;44.70;18.67;;;3.80;99.90;;;4.49;100.00;99898.41;5045366;28;20025;-80
2021/12/07 09:00:57;;;;;;;36.88;15.93;;;4.00;99.90;;;4.58;100.00;99904.66;5042590;28;20036;-79
2021/12/07 09:03:23;;;;;;;36.72;15.38;;;4.00;99.90;;;4.66;100.00;99898.25;5041243;28;20037;-79
2021/12/07 09:05:58;;;;;;;29.27;14.43;;;4.10;99.90;;;4.89;100.00;99909.78;5039325;28;20026;-80
2021/12/07 09:08:24;;;;;;;44.63;15.95;;;4.20;99.90;;;5.02;100.00;99908.69;5039088;28;20485;-80
2021/12/07 09:10:52;;;;;;;34.40;14.75;;;4.40;99.90;;;5.15;100.00;99907.59;5040203;28;20065;-81
2021/12/07 09:13:20;;;;;;;33.72;14.73;;;4.50;99.90;;;5.02;100.00;99912.28;5039120;28;20035;-80
2021/12/07 09:15:46;;;;;;;26.95;12.63;;;4.50;99.90;;;5.07;100.00;99914.03;5038501;28;20049;-79
2021/12/07 09:18:12;;;;;;;30.30;12.57;;;4.50;99.90;;;5.11;100.00;99914.97;5040336;28;20394;-79
2021/12/07 09:20:38;;;;;;;34.78;13.23;;;4.50;99.90;;;5.10;100.00;99916.13;5039538;28;20038;-81
2021/12/07 09:23:04;;;;;;;27.35;13.48;;;4.50;99.90;;;5.15;100.00;99922.25;5056868;28;20032;-79
2021/12/07 09:25:33;;;;;;;28.33;13.20;;;4.50;99.90;;;5.18;100.00;99924.34;5059544;28;20033;-81
2021/12/07 09:27:59;;;;;;;34.78;12.85;;;4.50;99.90;;;5.18;100.00;99926.31;5060258;28;20075;-79
2021/12/07 09:30:26;;;;;;;27.90;12.27;;;4.60;99.90;;;5.20;100.00;99935.88;5059155;28;20032;-79
2021/12/07 09:32:52;;;;;;;31.75;12.35;;;4.60;99.90;;;5.15;100.00;99932.53;5057829;28;20484;-80
2021/12/07 09:35:21;;;;;;;29.23;11.95;;;4.60;99.90;;;5.21;100.00;99936.69;5059219;28;20025;-80
2021/12/07 09:37:54;;;;;;;26.70;12.95;;;4.60;99.90;;;5.19;100.00;99934.28;5059292;28;20025;-79
2021/12/07 09:40:24;;;;;;;32.13;12.27;;;4.60;99.90;;;5.16;100.00;99951.56;5060028;28;20017;-80
2021/12/07 09:42:53;;;;;;;31.73;12.10;;;4.60;99.90;;;5.20;100.00;99951.72;5058230;28;20128;-80
2021/12/07 09:45:19;;;;;;;24.08;11.98;;;4.60;99.90;;;5.29;100.00;99950.47;5059115;28;20025;-79
2021/12/07 09:47:47;;;;;;;27.65;10.40;;;4.70;99.90;;;5.29;100.00;99955.19;5059211;28;20076;-78
2021/12/07 09:50:22;;;;;;;22.85;11.60;;;4.70;99.90;;;5.29;100.00;99953.25;5059204;28;20028;-77
2021/12/07 09:52:49;;;;;;;24.73;10.85;;;4.70;99.90;;;5.25;100.00;99952.31;5061140;28;20021;-81
2021/12/07 09:55:17;;;;;;;29.50;10.45;;;4.70;99.90;;;5.23;100.00;99946.28;5066836;28;20025;-80
2021/12/07 09:57:45;;;;;;;23.92;9.77;;;4.70;99.90;;;5.26;100.00;99951.16;5059953;28;20029;-80
2021/12/07 10:00:18;;;;;;;31.15;10.00;;;4.70;99.90;;;5.25;100.00;99951.50;5059641;28;20037;-80
2021/12/07 10:02:45;;;;;;;27.67;11.00;;;4.70;99.90;;;5.31;100.00;99950.94;5058474;28;20025;-79
2021/12/07 10:05:16;;;;;;;28.00;11.27;;;4.70;99.90;;;5.39;100.00;99957.56;5057986;28;20088;-80
2021/12/07 10:07:49;;;;;;;19.20;10.95;;;4.70;99.90;;;5.35;100.00;99948.31;5057613;28;20029;-80
2021/12/07 10:10:31;;;;;;;25.98;10.88;;;4.70;99.90;;;5.41;100.00;99963.56;5057950;28;20079;-80
2021/12/07 10:13:00;;;;;;;24.58;10.82;;;4.80;99.90;;;5.37;100.00;99956.25;5060474;28;20464;-81
2021/12/07 10:15:30;;;;;;;29.83;10.95;;;4.80;99.90;;;5.47;100.00;99953.06;5059893;28;20021;-80
2021/12/07 10:18:09;;;;;;;20.40;10.07;;;4.90;99.90;;;5.45;100.00;99960.91;5057838;28;20104;-80
2021/12/07 10:21:15;;;;;;;27.17;10.20;;;4.90;99.90;;;5.29;100.00;99955.19;5057231;28;20180;-80
2021/12/07 10:23:55;;;;;;;20.38;9.25;;;4.90;99.90;;;5.41;100.00;99954.44;5038207;28;20489;-79
2021/12/07 10:26:35;;;;;;;23.10;9.77;;;4.90;99.90;;;5.48;100.00;99954.69;5036259;28;20501;-81
2021/12/07 10:29:17;;;;;;;19.88;9.48;;;4.90;99.90;;;5.51;100.00;99959.56;5036212;28;20492;-79
2021/12/07 10:31:56;;;;;;;20.63;8.57;;;5.00;99.90;;;5.61;100.00;99950.81;5036360;28;20029;-81
2021/12/07 10:34:30;;;;;;;21.17;9.18;;;5.00;99.90;;;5.68;100.00;99945.53;5035105;28;20052;-79
2021/12/07 10:37:07;;;;;;;26.05;9.18;;;5.10;99.90;;;5.75;100.00;99945.75;5037200;28;20037;-80
2021/12/07 10:39:48;;;;;;;19.50;8.93;;;5.10;99.90;;;5.80;100.00;99943.59;5036591;28;20097;-81
2021/12/07 10:42:27;;;;;;;23.23;9.07;;;5.20;99.90;;;5.65;100.00;99938.69;5035427;28;20029;-80
2021/12/07 10:44:53;;;;;;;23.10;8.25;;;5.20;99.90;;;5.67;100.00;99925.31;5034937;28;20128;-79
2021/12/07 10:47:24;;;;;;;20.65;8.80;;;5.10;99.90;;;5.45;100.00;99933.22;5035173;28;20080;-79
2021/12/07 10:49:58;;;;;;;22.55;8.57;;;5.00;99.90;;;5.50;100.00;99938.53;5034736;28;20030;-80
2021/12/07 10:52:33;;;;;;;26.85;8.90;;;5.00;99.90;;;5.68;100.00;99928.91;5036809;28;20025;-81
2021/12/07 10:55:26;;;;;;;18.90;8.63;;;5.10;99.90;;;5.88;100.00;99927.22;5035990;28;20049;-78
2021/12/07 10:58:05;;;;;;;21.92;8.65;;;5.20;99.90;;;5.86;100.00;99924.00;5039005;28;20041;-80
2021/12/07 11:00:45;;;;;;;17.75;7.97;;;5.20;99.90;;;6.02;100.00;99924.94;5038485;28;20032;-79
2021/12/07 11:03:21;;;;;;;18.67;8.07;;;5.30;99.90;;;5.98;100.00;99921.22;5039094;28;20049;-79
2021/12/07 11:05:54;;;;;;;22.33;8.93;;;5.40;99.90;;;5.93;100.00;99915.94;5038053;28;20082;-79
2021/12/07 11:08:29;;;;;;;17.10;8.25;;;5.30;99.90;;;6.13;100.00;99915.03;5039264;28;20095;-80
2021/12/07 11:10:59;;;;;;;18.88;8.63;;;5.50;99.90;;;6.60;100.00;99921.69;5039453;28;20022;-80
2021/12/07 11:13:36;;;;;;;21.27;8.23;;;5.80;99.90;;;6.65;100.00;99912.28;5040632;28;20089;-80
2021/12/07 11:16:11;;;;;;;22.90;8.55;;;6.00;99.90;;;6.77;100.00;99918.66;5037826;28;20030;-80
2021/12/07 11:18:48;;;;;;;25.23;8.70;;;6.10;99.90;;;6.99;100.00;99913.72;5038566;28;20116;-79
2021/12/07 11:21:20;;;;;;;17.05;7.72;;;6.30;99.90;;;6.94;99.08;99898.13;5041218;28;20044;-79
2021/12/07 11:23:55;;;;;;;18.00;6.85;;;6.30;99.90;;;7.29;97.38;99906.66;5057099;28;20424;-79
2021/12/07 11:31:56;;;;;;;17.48;7.00;;;6.80;99.90;;;7.65;95.52;99902.88;5066925;28;20115;-78
2021/12/07 11:34:36;;;;;;;25.45;7.15;;;6.90;99.90;;;7.66;94.59;99898.94;5057990;28;20474;-78
2021/12/07 11:37:08;;;;;;;22.15;7.72;;;6.90;99.90;;;7.15;96.17;99890.41;5056721;28;20027;-79
2021/12/07 11:39:46;;;;;;;18.60;7.82;;;6.80;99.90;;;7.21;96.30;99893.75;5056639;28;20033;-81
2021/12/07 11:42:31;;;;;;;17.73;7.38;;;6.70;99.90;;;7.11;96.77;99874.81;5056054;28;20130;-80
2021/12/07 11:45:18;;;;;;;17.90;7.57;;;6.60;99.90;;;7.22;97.40;99878.72;5058823;28;20392;-81
2021/12/07 11:47:51;;;;;;;16.23;7.05;;;6.70;99.90;;;7.52;95.17;99873.56;5056595;28;20067;-80
2021/12/07 11:50:39;;;;;;;15.98;6.75;;;6.90;99.90;;;7.50;94.08;99871.16;5055884;28;20032;-81
2021/12/07 11:53:13;;;;;;;17.70;6.75;;;6.80;99.90;;;7.01;95.55;99861.44;5055760;28;20029;-78
2021/12/07 11:55:54;;;;;;;20.40;7.78;;;6.60;99.90;;;7.18;95.48;99861.94;5063545;28;20078;-77
2021/12/07 11:58:21;;;;;;;20.42;7.68;;;6.70;99.90;;;6.57;96.56;99853.03;5064389;28;20036;-79
2021/12/07 12:00:54;;;;;;;18.05;6.28;;;6.30;99.90;;;6.81;98.63;99850.16;5055333;28;20033;-79
2021/12/07 12:03:26;;;;;;;24.02;7.10;;;6.30;99.90;;;6.64;98.62;99856.03;5072689;28;20061;-81
2021/12/07 12:05:55;;;;;;;22.23;7.53;;;6.20;99.90;;;6.52;97.65;99846.91;5056168;28;20430;-81
2021/12/07 12:08:22;;;;;;;15.73;7.10;;;6.10;99.90;;;6.59;97.34;99847.94;5056219;28;20029;-78
2021/12/07 12:11:27;;;;;;;15.25;6.82;;;6.00;99.90;;;6.29;100.00;99847.41;5058318;28;20025;-79
2021/12/07 12:14:47;;;;;;;20.15;7.68;;;5.80;99.90;;;6.28;100.00;99856.09;5061358;28;20029;-80
2021/12/07 12:18:04;;;;;;;18.85;7.55;;;5.80;99.90;;;6.03;100.00;99857.25;5057722;28;20033;-79
2021/12/07 12:21:36;;;;;;;22.42;8.48;;;5.70;99.90;;;6.25;99.66;99852.06;5057585;28;20246;-79
2021/12/07 12:24:38;;;;;;;23.45;8.63;;;5.70;99.90;;;6.32;99.74;99860.56;5038343;28;20475;-79
2021/12/07 12:27:43;;;;;;;19.25;8.20;;;5.80;99.90;;;6.56;98.45;99853.38;5038064;28;20039;-79